sensor_id;sensor_type;location;lat;lon;timestamp;temperature;humidity
55648;DHT22;45266;48.756;9.246;2023-01-15T00:00:10;10.00;99.90
55648;DHT22;45266;48.756;9.246;2023-01-15T00:02:25;9.90;99.90
55648;DHT22;45266;48.756;9.246;2023-01-15T00:03:27;9.90;99.90
55648;DHT22;45266;48.756;9.246;2023-01-15T00:04:29;9.90;99.90
55648;DHT22;45266;48.756;9.246;2023-01-15T00:05:34;9.90;99.90
55648;DHT22;45266;48.756;9.246;2023-01-15T00:06:38;9.90;99.90
55648;DHT22;45266;48.756;9.246;2023-01-15T00:07:40;9.90;99.90
55648;DHT22;45266;48.756;9.246;2023-01-15T00:08:42;9.90;99.90
55648;DHT22;45266;48.756;9.246;2023-01-15T00:09:44;9.90;99.90
55648;DHT22;45266;48.756;9.246;2023-01-15T00:10:46;10.00;99.90
55648;DHT22;45266;48.756;9.246;2023-01-15T00:11:48;10.00;99.90
55648;DHT22;45266;48.756;9.246;2023-01-15T00:12:49;10.00;99.90
55648;DHT22;45266;48.756;9.246;2023-01-15T00:13:51;10.00;99.90
55648;DHT22;45266;48.756;9.246;2023-01-15T00:14:53;10.00;99.90
55648;DHT22;45266;48.756;9.246;2023-01-15T00:16:10;10.00;99.90
55648;DHT22;45266;48.756;9.246;2023-01-15T00:17:12;10.00;99.90
55648;DHT22;45266;48.756;9.246;2023-01-15T00:18:14;10.00;99.90
55648;DHT22;45266;48.756;9.246;2023-01-15T00:19:15;10.00;99.90
55648;DHT22;45266;48.756;9.246;2023-01-15T00:20:17;10.00;99.90
55648;DHT22;45266;48.756;9.246;2023-01-15T00:21:20;9.90;99.90
55648;DHT22;45266;48.756;9.246;2023-01-15T00:22:22;10.00;99.90
55648;DHT22;45266;48.756;9.246;2023-01-15T00:23:24;10.00;99.90
55648;DHT22;45266;48.756;9.246;2023-01-15T00:24:44;10.00;99.90
55648;DHT22;45266;48.756;9.246;2023-01-15T00:26:04;10.00;99.90
55648;DHT22;45266;48.756;9.246;2023-01-15T00:27:25;10.00;99.90
55648;DHT22;45266;48.756;9.246;2023-01-15T00:28:39;10.00;99.90
55648;DHT22;45266;48.756;9.246;2023-01-15T00:29:41;10.00;99.90
55648;DHT22;45266;48.756;9.246;2023-01-15T00:30:42;10.00;99.90
55648;DHT22;45266;48.756;9.246;2023-01-15T00:31:57;10.00;99.90
55648;DHT22;45266;48.756;9.246;2023-01-15T00:32:59;10.00;99.90
55648;DHT22;45266;48.756;9.246;2023-01-15T00:34:02;10.00;99.90
55648;DHT22;45266;48.756;9.246;2023-01-15T00:35:04;10.00;99.90
55648;DHT22;45266;48.756;9.246;2023-01-15T00:36:06;10.00;99.90
55648;DHT22;45266;48.756;9.246;2023-01-15T00:37:08;10.00;99.90
55648;DHT22;45266;48.756;9.246;2023-01-15T00:38:10;10.00;99.90
55648;DHT22;45266;48.756;9.246;2023-01-15T00:39:12;10.10;99.90
55648;DHT22;45266;48.756;9.246;2023-01-15T00:40:15;10.10;99.90
55648;DHT22;45266;48.756;9.246;2023-01-15T00:41:17;10.20;99.90
55648;DHT22;45266;48.756;9.246;2023-01-15T00:42:19;10.20;99.90
55648;DHT22;45266;48.756;9.246;2023-01-15T00:43:21;10.10;99.90
55648;DHT22;45266;48.756;9.246;2023-01-15T00:44:23;10.10;99.90
55648;DHT22;45266;48.756;9.246;2023-01-15T00:45:24;10.10;99.90
55648;DHT22;45266;48.756;9.246;2023-01-15T00:46:27;10.10;99.90
55648;DHT22;45266;48.756;9.246;2023-01-15T00:47:28;10.00;99.90
55648;DHT22;45266;48.756;9.246;2023-01-15T00:48:30;10.00;99.90
55648;DHT22;45266;48.756;9.246;2023-01-15T00:49:32;10.00;99.90
55648;DHT22;45266;48.756;9.246;2023-01-15T00:50:34;10.00;99.90
55648;DHT22;45266;48.756;9.246;2023-01-15T00:51:36;9.90;99.90
55648;DHT22;45266;48.756;9.246;2023-01-15T00:52:38;9.90;99.90
55648;DHT22;45266;48.756;9.246;2023-01-15T00:53:40;9.90;99.90
55648;DHT22;45266;48.756;9.246;2023-01-15T00:54:42;9.90;99.90
55648;DHT22;45266;48.756;9.246;2023-01-15T00:55:44;9.90;99.90
55648;DHT22;45266;48.756;9.246;2023-01-15T00:56:46;9.90;99.90
55648;DHT22;45266;48.756;9.246;2023-01-15T00:57:47;9.90;99.90
55648;DHT22;45266;48.756;9.246;2023-01-15T00:58:49;9.90;99.90
55648;DHT22;45266;48.756;9.246;2023-01-15T00:59:51;9.80;99.90
55648;DHT22;45266;48.756;9.246;2023-01-15T01:00:54;9.80;99.90
55648;DHT22;45266;48.756;9.246;2023-01-15T01:01:56;9.80;99.90
55648;DHT22;45266;48.756;9.246;2023-01-15T01:02:58;9.80;99.90
55648;DHT22;45266;48.756;9.246;2023-01-15T01:04:01;9.80;99.90
55648;DHT22;45266;48.756;9.246;2023-01-15T01:05:03;9.80;99.90
55648;DHT22;45266;48.756;9.246;2023-01-15T01:06:06;9.70;99.90
55648;DHT22;45266;48.756;9.246;2023-01-15T01:07:08;9.70;99.90
55648;DHT22;45266;48.756;9.246;2023-01-15T01:08:11;9.80;99.90
55648;DHT22;45266;48.756;9.246;2023-01-15T01:09:15;9.70;99.90
55648;DHT22;45266;48.756;9.246;2023-01-15T01:10:17;9.70;99.90
55648;DHT22;45266;48.756;9.246;2023-01-15T01:11:21;9.70;99.90
55648;DHT22;45266;48.756;9.246;2023-01-15T01:12:25;9.70;99.90
55648;DHT22;45266;48.756;9.246;2023-01-15T01:13:27;9.70;99.90
55648;DHT22;45266;48.756;9.246;2023-01-15T01:14:28;9.70;99.90
55648;DHT22;45266;48.756;9.246;2023-01-15T01:15:32;9.70;99.90
55648;DHT22;45266;48.756;9.246;2023-01-15T01:16:36;9.80;99.90
55648;DHT22;45266;48.756;9.246;2023-01-15T01:17:39;9.80;99.90
55648;DHT22;45266;48.756;9.246;2023-01-15T01:18:40;9.80;99.90
55648;DHT22;45266;48.756;9.246;2023-01-15T01:19:42;9.80;99.90
55648;DHT22;45266;48.756;9.246;2023-01-15T01:20:44;9.90;99.90
55648;DHT22;45266;48.756;9.246;2023-01-15T01:21:47;9.90;99.90
55648;DHT22;45266;48.756;9.246;2023-01-15T01:22:49;9.90;99.90
55648;DHT22;45266;48.756;9.246;2023-01-15T01:23:50;9.90;99.90
55648;DHT22;45266;48.756;9.246;2023-01-15T01:24:52;9.90;99.90
55648;DHT22;45266;48.756;9.246;2023-01-15T01:25:56;9.90;99.90
55648;DHT22;45266;48.756;9.246;2023-01-15T01:26:58;9.90;99.90
55648;DHT22;45266;48.756;9.246;2023-01-15T01:28:00;10.00;99.90
55648;DHT22;45266;48.756;9.246;2023-01-15T01:29:02;10.00;99.90
55648;DHT22;45266;48.756;9.246;2023-01-15T01:30:04;10.00;99.90
55648;DHT22;45266;48.756;9.246;2023-01-15T01:31:07;10.00;99.90
55648;DHT22;45266;48.756;9.246;2023-01-15T01:32:09;10.00;99.90
55648;DHT22;45266;48.756;9.246;2023-01-15T01:33:10;10.10;99.90
55648;DHT22;45266;48.756;9.246;2023-01-15T01:34:13;10.00;99.90
55648;DHT22;45266;48.756;9.246;2023-01-15T01:35:15;10.10;99.90
55648;DHT22;45266;48.756;9.246;2023-01-15T01:36:17;10.00;99.90
55648;DHT22;45266;48.756;9.246;2023-01-15T01:37:19;10.10;99.90
55648;DHT22;45266;48.756;9.246;2023-01-15T01:38:21;10.10;99.90
55648;DHT22;45266;48.756;9.246;2023-01-15T01:39:23;10.20;99.90
55648;DHT22;45266;48.756;9.246;2023-01-15T01:40:25;10.20;99.90
55648;DHT22;45266;48.756;9.246;2023-01-15T01:41:27;10.20;99.90
55648;DHT22;45266;48.756;9.246;2023-01-15T01:42:29;10.30;99.90
55648;DHT22;45266;48.756;9.246;2023-01-15T01:43:51;10.30;99.90
55648;DHT22;45266;48.756;9.246;2023-01-15T01:45:00;10.30;99.90
55648;DHT22;45266;48.756;9.246;2023-01-15T01:46:02;10.30;99.90
55648;DHT22;45266;48.756;9.246;2023-01-15T01:47:10;10.30;99.90
55648;DHT22;45266;48.756;9.246;2023-01-15T01:48:19;10.30;99.90
55648;DHT22;45266;48.756;9.246;2023-01-15T01:49:22;10.30;99.90
55648;DHT22;45266;48.756;9.246;2023-01-15T01:50:25;10.30;99.90
55648;DHT22;45266;48.756;9.246;2023-01-15T01:51:33;10.40;99.90
55648;DHT22;45266;48.756;9.246;2023-01-15T01:52:39;10.40;99.90
55648;DHT22;45266;48.756;9.246;2023-01-15T01:53:42;10.30;99.90
55648;DHT22;45266;48.756;9.246;2023-01-15T01:54:46;10.50;99.90
55648;DHT22;45266;48.756;9.246;2023-01-15T01:55:50;10.30;99.90
55648;DHT22;45266;48.756;9.246;2023-01-15T01:56:52;10.40;99.90
55648;DHT22;45266;48.756;9.246;2023-01-15T01:57:57;10.40;99.90
55648;DHT22;45266;48.756;9.246;2023-01-15T01:59:00;10.40;99.90
55648;DHT22;45266;48.756;9.246;2023-01-15T02:00:03;10.40;99.90
55648;DHT22;45266;48.756;9.246;2023-01-15T02:01:07;10.30;99.90
55648;DHT22;45266;48.756;9.246;2023-01-15T02:02:09;10.40;99.90
55648;DHT22;45266;48.756;9.246;2023-01-15T02:03:11;10.40;99.90
55648;DHT22;45266;48.756;9.246;2023-01-15T02:04:14;10.50;99.90
55648;DHT22;45266;48.756;9.246;2023-01-15T02:05:38;10.50;99.90
55648;DHT22;45266;48.756;9.246;2023-01-15T02:06:41;10.60;99.90
55648;DHT22;45266;48.756;9.246;2023-01-15T02:07:43;10.50;99.90
55648;DHT22;45266;48.756;9.246;2023-01-15T02:08:45;10.50;99.90
55648;DHT22;45266;48.756;9.246;2023-01-15T02:09:47;10.60;99.90
55648;DHT22;45266;48.756;9.246;2023-01-15T02:10:52;10.60;99.90
55648;DHT22;45266;48.756;9.246;2023-01-15T02:11:57;10.60;99.90
55648;DHT22;45266;48.756;9.246;2023-01-15T02:13:10;10.60;99.90
55648;DHT22;45266;48.756;9.246;2023-01-15T02:14:27;10.60;99.90
55648;DHT22;45266;48.756;9.246;2023-01-15T02:15:38;10.60;99.90
55648;DHT22;45266;48.756;9.246;2023-01-15T02:16:46;10.60;99.90
55648;DHT22;45266;48.756;9.246;2023-01-15T02:18:00;10.70;99.90
55648;DHT22;45266;48.756;9.246;2023-01-15T02:19:17;10.70;99.90
55648;DHT22;45266;48.756;9.246;2023-01-15T02:20:43;10.70;99.90
55648;DHT22;45266;48.756;9.246;2023-01-15T02:23:22;10.80;99.90
55648;DHT22;45266;48.756;9.246;2023-01-15T02:24:48;10.80;99.90
55648;DHT22;45266;48.756;9.246;2023-01-15T02:27:15;10.80;99.90
55648;DHT22;45266;48.756;9.246;2023-01-15T02:28:30;10.80;99.90
55648;DHT22;45266;48.756;9.246;2023-01-15T02:31:22;10.70;99.90
55648;DHT22;45266;48.756;9.246;2023-01-15T02:32:34;10.70;99.90
55648;DHT22;45266;48.756;9.246;2023-01-15T02:34:19;10.80;99.90
55648;DHT22;45266;48.756;9.246;2023-01-15T02:35:23;10.80;99.90
55648;DHT22;45266;48.756;9.246;2023-01-15T02:36:27;10.80;99.90
55648;DHT22;45266;48.756;9.246;2023-01-15T02:37:32;10.80;99.90
55648;DHT22;45266;48.756;9.246;2023-01-15T02:38:39;10.80;99.90
55648;DHT22;45266;48.756;9.246;2023-01-15T02:39:44;10.70;99.90
55648;DHT22;45266;48.756;9.246;2023-01-15T02:40:50;10.70;99.90
55648;DHT22;45266;48.756;9.246;2023-01-15T02:41:56;10.70;99.90
55648;DHT22;45266;48.756;9.246;2023-01-15T02:42:59;10.70;99.90
55648;DHT22;45266;48.756;9.246;2023-01-15T02:44:03;10.70;99.90
55648;DHT22;45266;48.756;9.246;2023-01-15T02:45:08;10.70;99.90
55648;DHT22;45266;48.756;9.246;2023-01-15T02:46:14;10.70;99.90
55648;DHT22;45266;48.756;9.246;2023-01-15T02:47:19;10.70;99.90
55648;DHT22;45266;48.756;9.246;2023-01-15T02:48:27;10.60;99.90
55648;DHT22;45266;48.756;9.246;2023-01-15T02:49:30;10.60;99.90
55648;DHT22;45266;48.756;9.246;2023-01-15T02:50:37;10.60;99.90
55648;DHT22;45266;48.756;9.246;2023-01-15T02:53:06;10.60;99.90
55648;DHT22;45266;48.756;9.246;2023-01-15T02:54:13;10.60;99.90
55648;DHT22;45266;48.756;9.246;2023-01-15T02:55:26;10.60;99.90
55648;DHT22;45266;48.756;9.246;2023-01-15T02:56:30;10.60;99.90
55648;DHT22;45266;48.756;9.246;2023-01-15T02:57:36;10.60;99.90
55648;DHT22;45266;48.756;9.246;2023-01-15T02:58:41;10.60;99.90
55648;DHT22;45266;48.756;9.246;2023-01-15T02:59:47;10.60;99.90
55648;DHT22;45266;48.756;9.246;2023-01-15T03:00:51;10.60;99.90
55648;DHT22;45266;48.756;9.246;2023-01-15T03:01:59;10.60;99.90
55648;DHT22;45266;48.756;9.246;2023-01-15T03:03:35;10.60;99.90
55648;DHT22;45266;48.756;9.246;2023-01-15T03:05:08;10.60;99.90
55648;DHT22;45266;48.756;9.246;2023-01-15T03:06:24;10.60;99.90
55648;DHT22;45266;48.756;9.246;2023-01-15T03:07:36;10.60;99.90
55648;DHT22;45266;48.756;9.246;2023-01-15T03:08:41;10.70;99.90
55648;DHT22;45266;48.756;9.246;2023-01-15T03:09:44;10.60;99.90
55648;DHT22;45266;48.756;9.246;2023-01-15T03:12:23;10.60;99.90
55648;DHT22;45266;48.756;9.246;2023-01-15T03:13:47;10.60;99.90
55648;DHT22;45266;48.756;9.246;2023-01-15T03:15:14;10.60;99.90
55648;DHT22;45266;48.756;9.246;2023-01-15T03:16:49;10.60;99.90
55648;DHT22;45266;48.756;9.246;2023-01-15T03:17:54;10.60;99.90
55648;DHT22;45266;48.756;9.246;2023-01-15T03:20:21;10.50;99.90
55648;DHT22;45266;48.756;9.246;2023-01-15T03:22:45;10.50;99.90
55648;DHT22;45266;48.756;9.246;2023-01-15T03:23:52;10.50;99.90
55648;DHT22;45266;48.756;9.246;2023-01-15T03:25:23;10.50;99.90
55648;DHT22;45266;48.756;9.246;2023-01-15T03:26:27;10.50;99.90
55648;DHT22;45266;48.756;9.246;2023-01-15T03:27:29;10.50;99.90
55648;DHT22;45266;48.756;9.246;2023-01-15T03:28:32;10.50;99.90
55648;DHT22;45266;48.756;9.246;2023-01-15T03:29:42;10.50;99.90
55648;DHT22;45266;48.756;9.246;2023-01-15T03:30:45;10.40;99.90
55648;DHT22;45266;48.756;9.246;2023-01-15T03:31:47;10.50;99.90
55648;DHT22;45266;48.756;9.246;2023-01-15T03:32:50;10.40;99.90
55648;DHT22;45266;48.756;9.246;2023-01-15T03:33:53;10.40;99.90
55648;DHT22;45266;48.756;9.246;2023-01-15T03:34:56;10.40;99.90
55648;DHT22;45266;48.756;9.246;2023-01-15T03:35:59;10.40;99.90
55648;DHT22;45266;48.756;9.246;2023-01-15T03:37:01;10.40;99.90
55648;DHT22;45266;48.756;9.246;2023-01-15T03:38:03;10.40;99.90
55648;DHT22;45266;48.756;9.246;2023-01-15T03:39:05;10.40;99.90
55648;DHT22;45266;48.756;9.246;2023-01-15T03:40:08;10.40;99.90
55648;DHT22;45266;48.756;9.246;2023-01-15T03:42:23;10.40;99.90
55648;DHT22;45266;48.756;9.246;2023-01-15T03:45:25;10.40;99.90
55648;DHT22;45266;48.756;9.246;2023-01-15T03:48:22;10.40;99.90
55648;DHT22;45266;48.756;9.246;2023-01-15T03:49:53;10.30;99.90
55648;DHT22;45266;48.756;9.246;2023-01-15T03:51:22;10.30;99.90
55648;DHT22;45266;48.756;9.246;2023-01-15T03:52:45;10.40;99.90
55648;DHT22;45266;48.756;9.246;2023-01-15T03:53:55;10.30;99.90
55648;DHT22;45266;48.756;9.246;2023-01-15T03:55:18;10.30;99.90
55648;DHT22;45266;48.756;9.246;2023-01-15T03:56:28;10.30;99.90
55648;DHT22;45266;48.756;9.246;2023-01-15T03:58:52;10.30;99.90
55648;DHT22;45266;48.756;9.246;2023-01-15T04:00:00;10.30;99.90
55648;DHT22;45266;48.756;9.246;2023-01-15T04:01:04;10.20;99.90
55648;DHT22;45266;48.756;9.246;2023-01-15T04:02:11;10.20;99.90
55648;DHT22;45266;48.756;9.246;2023-01-15T04:03:17;10.20;99.90
55648;DHT22;45266;48.756;9.246;2023-01-15T04:04:19;10.20;99.90
55648;DHT22;45266;48.756;9.246;2023-01-15T04:05:23;10.20;99.90
55648;DHT22;45266;48.756;9.246;2023-01-15T04:06:30;10.10;99.90
55648;DHT22;45266;48.756;9.246;2023-01-15T04:07:33;10.10;99.90
55648;DHT22;45266;48.756;9.246;2023-01-15T04:08:38;10.10;99.90
55648;DHT22;45266;48.756;9.246;2023-01-15T04:09:40;10.10;99.90
55648;DHT22;45266;48.756;9.246;2023-01-15T04:10:58;10.10;99.90
55648;DHT22;45266;48.756;9.246;2023-01-15T04:12:00;10.10;99.90
55648;DHT22;45266;48.756;9.246;2023-01-15T04:13:02;10.20;99.90
55648;DHT22;45266;48.756;9.246;2023-01-15T04:14:04;10.10;99.90
55648;DHT22;45266;48.756;9.246;2023-01-15T04:15:07;10.10;99.90
55648;DHT22;45266;48.756;9.246;2023-01-15T04:16:09;10.20;99.90
55648;DHT22;45266;48.756;9.246;2023-01-15T04:17:11;10.20;99.90
55648;DHT22;45266;48.756;9.246;2023-01-15T04:18:13;10.20;99.90
55648;DHT22;45266;48.756;9.246;2023-01-15T04:19:15;10.20;99.90
55648;DHT22;45266;48.756;9.246;2023-01-15T04:20:17;10.20;99.90
55648;DHT22;45266;48.756;9.246;2023-01-15T04:21:19;10.20;99.90
55648;DHT22;45266;48.756;9.246;2023-01-15T04:22:21;10.20;99.90
55648;DHT22;45266;48.756;9.246;2023-01-15T04:23:23;10.20;99.90
55648;DHT22;45266;48.756;9.246;2023-01-15T04:24:24;10.20;99.90
55648;DHT22;45266;48.756;9.246;2023-01-15T04:25:26;10.20;99.90
55648;DHT22;45266;48.756;9.246;2023-01-15T04:26:28;10.20;99.90
55648;DHT22;45266;48.756;9.246;2023-01-15T04:27:30;10.20;99.90
55648;DHT22;45266;48.756;9.246;2023-01-15T04:28:32;10.20;99.90
55648;DHT22;45266;48.756;9.246;2023-01-15T04:29:34;10.30;99.90
55648;DHT22;45266;48.756;9.246;2023-01-15T04:30:35;10.30;99.90
55648;DHT22;45266;48.756;9.246;2023-01-15T04:31:37;10.30;99.90
55648;DHT22;45266;48.756;9.246;2023-01-15T04:32:39;10.30;99.90
55648;DHT22;45266;48.756;9.246;2023-01-15T04:33:41;10.30;99.90
55648;DHT22;45266;48.756;9.246;2023-01-15T04:34:43;10.30;99.90
55648;DHT22;45266;48.756;9.246;2023-01-15T04:35:44;10.30;99.90
55648;DHT22;45266;48.756;9.246;2023-01-15T04:36:47;10.30;99.90
55648;DHT22;45266;48.756;9.246;2023-01-15T04:37:54;10.30;99.90
55648;DHT22;45266;48.756;9.246;2023-01-15T04:38:56;10.30;99.90
55648;DHT22;45266;48.756;9.246;2023-01-15T04:40:00;10.30;99.90
55648;DHT22;45266;48.756;9.246;2023-01-15T04:41:02;10.20;99.90
55648;DHT22;45266;48.756;9.246;2023-01-15T04:42:22;10.30;99.90
55648;DHT22;45266;48.756;9.246;2023-01-15T04:43:42;10.30;99.90
55648;DHT22;45266;48.756;9.246;2023-01-15T04:45:03;10.30;99.90
55648;DHT22;45266;48.756;9.246;2023-01-15T04:46:05;10.30;99.90
55648;DHT22;45266;48.756;9.246;2023-01-15T04:47:07;10.30;99.90
55648;DHT22;45266;48.756;9.246;2023-01-15T04:48:10;10.40;99.90
55648;DHT22;45266;48.756;9.246;2023-01-15T04:49:15;10.30;99.90
55648;DHT22;45266;48.756;9.246;2023-01-15T04:50:17;10.30;99.90
55648;DHT22;45266;48.756;9.246;2023-01-15T04:51:19;10.30;99.90
55648;DHT22;45266;48.756;9.246;2023-01-15T04:52:20;10.30;99.90
55648;DHT22;45266;48.756;9.246;2023-01-15T04:53:22;10.30;99.90
55648;DHT22;45266;48.756;9.246;2023-01-15T04:54:26;10.40;99.90
55648;DHT22;45266;48.756;9.246;2023-01-15T04:55:29;10.50;99.90
55648;DHT22;45266;48.756;9.246;2023-01-15T04:56:31;10.50;99.90
55648;DHT22;45266;48.756;9.246;2023-01-15T04:57:33;10.50;99.90
55648;DHT22;45266;48.756;9.246;2023-01-15T04:58:37;10.60;99.90
55648;DHT22;45266;48.756;9.246;2023-01-15T04:59:39;10.60;99.90
55648;DHT22;45266;48.756;9.246;2023-01-15T05:00:41;10.60;99.90
55648;DHT22;45266;48.756;9.246;2023-01-15T05:01:42;10.60;99.90
55648;DHT22;45266;48.756;9.246;2023-01-15T05:03:03;10.60;99.90
55648;DHT22;45266;48.756;9.246;2023-01-15T05:04:06;10.60;99.90
55648;DHT22;45266;48.756;9.246;2023-01-15T05:05:08;10.60;99.90
55648;DHT22;45266;48.756;9.246;2023-01-15T05:06:10;10.70;99.90
55648;DHT22;45266;48.756;9.246;2023-01-15T05:07:14;10.70;99.90
55648;DHT22;45266;48.756;9.246;2023-01-15T05:08:16;10.70;99.90
55648;DHT22;45266;48.756;9.246;2023-01-15T05:09:18;10.70;99.90
55648;DHT22;45266;48.756;9.246;2023-01-15T05:10:20;10.70;99.90
55648;DHT22;45266;48.756;9.246;2023-01-15T05:11:22;10.70;99.90
55648;DHT22;45266;48.756;9.246;2023-01-15T05:12:24;10.70;99.90
55648;DHT22;45266;48.756;9.246;2023-01-15T05:13:26;10.70;99.90
55648;DHT22;45266;48.756;9.246;2023-01-15T05:14:28;10.70;99.90
55648;DHT22;45266;48.756;9.246;2023-01-15T05:15:30;10.70;99.90
55648;DHT22;45266;48.756;9.246;2023-01-15T05:16:32;10.70;99.90
55648;DHT22;45266;48.756;9.246;2023-01-15T05:17:35;10.70;99.90
55648;DHT22;45266;48.756;9.246;2023-01-15T05:18:37;10.70;99.90
55648;DHT22;45266;48.756;9.246;2023-01-15T05:19:39;10.80;99.90
55648;DHT22;45266;48.756;9.246;2023-01-15T05:20:41;10.80;99.90
55648;DHT22;45266;48.756;9.246;2023-01-15T05:21:43;10.80;99.90
55648;DHT22;45266;48.756;9.246;2023-01-15T05:22:45;10.80;99.90
55648;DHT22;45266;48.756;9.246;2023-01-15T05:23:48;10.80;99.90
55648;DHT22;45266;48.756;9.246;2023-01-15T05:24:50;10.80;99.90
55648;DHT22;45266;48.756;9.246;2023-01-15T05:25:52;10.80;99.90
55648;DHT22;45266;48.756;9.246;2023-01-15T05:26:54;10.80;99.90
55648;DHT22;45266;48.756;9.246;2023-01-15T05:27:56;10.80;99.90
55648;DHT22;45266;48.756;9.246;2023-01-15T05:28:59;10.80;99.90
55648;DHT22;45266;48.756;9.246;2023-01-15T05:30:01;10.80;99.90
55648;DHT22;45266;48.756;9.246;2023-01-15T05:31:13;10.70;99.90
55648;DHT22;45266;48.756;9.246;2023-01-15T05:32:16;10.70;99.90
55648;DHT22;45266;48.756;9.246;2023-01-15T05:33:17;10.80;99.90
55648;DHT22;45266;48.756;9.246;2023-01-15T05:34:19;10.80;99.90
55648;DHT22;45266;48.756;9.246;2023-01-15T05:35:21;10.80;99.90
55648;DHT22;45266;48.756;9.246;2023-01-15T05:36:26;10.80;99.90
55648;DHT22;45266;48.756;9.246;2023-01-15T05:37:29;10.70;99.90
55648;DHT22;45266;48.756;9.246;2023-01-15T05:38:31;10.70;99.90
55648;DHT22;45266;48.756;9.246;2023-01-15T05:39:33;10.50;99.90
55648;DHT22;45266;48.756;9.246;2023-01-15T05:40:35;10.30;99.90
55648;DHT22;45266;48.756;9.246;2023-01-15T05:41:37;10.20;99.90
55648;DHT22;45266;48.756;9.246;2023-01-15T05:42:52;10.10;99.90
55648;DHT22;45266;48.756;9.246;2023-01-15T05:43:55;10.00;99.90
55648;DHT22;45266;48.756;9.246;2023-01-15T05:44:57;9.90;99.90
55648;DHT22;45266;48.756;9.246;2023-01-15T05:46:01;9.80;99.90
55648;DHT22;45266;48.756;9.246;2023-01-15T05:47:03;9.70;99.90
55648;DHT22;45266;48.756;9.246;2023-01-15T05:48:06;9.60;99.90
55648;DHT22;45266;48.756;9.246;2023-01-15T05:49:15;9.50;99.90
55648;DHT22;45266;48.756;9.246;2023-01-15T05:50:17;9.40;99.90
55648;DHT22;45266;48.756;9.246;2023-01-15T05:51:19;9.30;99.90
55648;DHT22;45266;48.756;9.246;2023-01-15T05:52:21;9.20;99.90
55648;DHT22;45266;48.756;9.246;2023-01-15T05:53:23;9.20;99.90
55648;DHT22;45266;48.756;9.246;2023-01-15T05:54:27;9.10;99.90
55648;DHT22;45266;48.756;9.246;2023-01-15T05:55:29;9.10;99.90
55648;DHT22;45266;48.756;9.246;2023-01-15T05:56:34;9.10;99.90
55648;DHT22;45266;48.756;9.246;2023-01-15T05:57:36;9.00;99.90
55648;DHT22;45266;48.756;9.246;2023-01-15T05:58:38;9.00;99.90
55648;DHT22;45266;48.756;9.246;2023-01-15T05:59:40;9.00;99.90
55648;DHT22;45266;48.756;9.246;2023-01-15T06:00:41;8.90;99.90
55648;DHT22;45266;48.756;9.246;2023-01-15T06:01:43;8.90;99.90
55648;DHT22;45266;48.756;9.246;2023-01-15T06:02:48;8.90;99.90
55648;DHT22;45266;48.756;9.246;2023-01-15T06:03:50;8.80;99.90
55648;DHT22;45266;48.756;9.246;2023-01-15T06:04:54;8.80;99.90
55648;DHT22;45266;48.756;9.246;2023-01-15T06:05:55;8.80;99.90
55648;DHT22;45266;48.756;9.246;2023-01-15T06:06:57;8.70;99.90
55648;DHT22;45266;48.756;9.246;2023-01-15T06:07:59;8.70;99.90
55648;DHT22;45266;48.756;9.246;2023-01-15T06:09:03;8.60;99.90
55648;DHT22;45266;48.756;9.246;2023-01-15T06:10:05;8.60;99.90
55648;DHT22;45266;48.756;9.246;2023-01-15T06:11:08;8.50;99.90
55648;DHT22;45266;48.756;9.246;2023-01-15T06:12:11;8.50;99.90
55648;DHT22;45266;48.756;9.246;2023-01-15T06:13:13;8.50;99.90
55648;DHT22;45266;48.756;9.246;2023-01-15T06:14:16;8.50;99.90
55648;DHT22;45266;48.756;9.246;2023-01-15T06:15:18;8.50;99.90
55648;DHT22;45266;48.756;9.246;2023-01-15T06:16:19;8.50;99.90
55648;DHT22;45266;48.756;9.246;2023-01-15T06:17:21;8.40;99.90
55648;DHT22;45266;48.756;9.246;2023-01-15T06:18:23;8.40;99.90
55648;DHT22;45266;48.756;9.246;2023-01-15T06:19:25;8.20;99.90
55648;DHT22;45266;48.756;9.246;2023-01-15T06:20:27;8.40;99.90
55648;DHT22;45266;48.756;9.246;2023-01-15T06:21:30;8.40;99.90
55648;DHT22;45266;48.756;9.246;2023-01-15T06:22:32;8.40;99.90
55648;DHT22;45266;48.756;9.246;2023-01-15T06:23:34;8.30;99.90
55648;DHT22;45266;48.756;9.246;2023-01-15T06:24:39;8.30;99.90
55648;DHT22;45266;48.756;9.246;2023-01-15T06:25:41;8.30;99.90
55648;DHT22;45266;48.756;9.246;2023-01-15T06:26:43;8.30;99.90
55648;DHT22;45266;48.756;9.246;2023-01-15T06:27:44;8.30;99.90
55648;DHT22;45266;48.756;9.246;2023-01-15T06:28:47;8.20;99.90
55648;DHT22;45266;48.756;9.246;2023-01-15T06:29:49;8.20;99.90
55648;DHT22;45266;48.756;9.246;2023-01-15T06:30:51;8.10;99.90
55648;DHT22;45266;48.756;9.246;2023-01-15T06:31:52;8.10;99.90
55648;DHT22;45266;48.756;9.246;2023-01-15T06:32:54;8.10;99.90
55648;DHT22;45266;48.756;9.246;2023-01-15T06:33:56;8.10;99.90
55648;DHT22;45266;48.756;9.246;2023-01-15T06:34:58;8.10;99.90
55648;DHT22;45266;48.756;9.246;2023-01-15T06:36:09;8.10;99.90
55648;DHT22;45266;48.756;9.246;2023-01-15T06:37:11;8.10;99.90
55648;DHT22;45266;48.756;9.246;2023-01-15T06:38:13;8.00;99.90
55648;DHT22;45266;48.756;9.246;2023-01-15T06:39:15;8.00;99.90
55648;DHT22;45266;48.756;9.246;2023-01-15T06:40:18;8.10;99.90
55648;DHT22;45266;48.756;9.246;2023-01-15T06:41:22;8.00;99.90
55648;DHT22;45266;48.756;9.246;2023-01-15T06:42:43;8.00;99.90
55648;DHT22;45266;48.756;9.246;2023-01-15T06:44:03;8.00;99.90
55648;DHT22;45266;48.756;9.246;2023-01-15T06:45:23;8.00;99.90
55648;DHT22;45266;48.756;9.246;2023-01-15T06:46:46;7.90;99.90
55648;DHT22;45266;48.756;9.246;2023-01-15T06:48:06;7.90;99.90
55648;DHT22;45266;48.756;9.246;2023-01-15T06:49:08;7.90;99.90
55648;DHT22;45266;48.756;9.246;2023-01-15T06:50:10;7.80;99.90
55648;DHT22;45266;48.756;9.246;2023-01-15T06:51:13;7.80;99.90
55648;DHT22;45266;48.756;9.246;2023-01-15T06:52:19;7.80;99.90
55648;DHT22;45266;48.756;9.246;2023-01-15T06:53:21;7.80;99.90
55648;DHT22;45266;48.756;9.246;2023-01-15T06:54:23;7.80;99.90
55648;DHT22;45266;48.756;9.246;2023-01-15T06:55:24;7.70;99.90
55648;DHT22;45266;48.756;9.246;2023-01-15T06:56:26;7.70;99.90
55648;DHT22;45266;48.756;9.246;2023-01-15T06:57:28;7.70;99.90
55648;DHT22;45266;48.756;9.246;2023-01-15T06:58:29;7.60;99.90
55648;DHT22;45266;48.756;9.246;2023-01-15T06:59:31;7.60;99.90
55648;DHT22;45266;48.756;9.246;2023-01-15T07:00:33;7.60;99.90
55648;DHT22;45266;48.756;9.246;2023-01-15T07:01:35;7.60;99.90
55648;DHT22;45266;48.756;9.246;2023-01-15T07:02:37;7.50;99.90
55648;DHT22;45266;48.756;9.246;2023-01-15T07:03:41;7.50;99.90
55648;DHT22;45266;48.756;9.246;2023-01-15T07:04:44;7.50;99.90
55648;DHT22;45266;48.756;9.246;2023-01-15T07:05:45;7.50;99.90
55648;DHT22;45266;48.756;9.246;2023-01-15T07:06:47;7.50;99.90
55648;DHT22;45266;48.756;9.246;2023-01-15T07:07:49;7.40;99.90
55648;DHT22;45266;48.756;9.246;2023-01-15T07:08:51;7.40;99.90
55648;DHT22;45266;48.756;9.246;2023-01-15T07:09:53;7.40;99.90